createdAt,value
2019-03-11T00:00:38.011Z,41.73
2019-03-11T00:01:38.017Z,41.09
2019-03-11T00:02:37.982Z,39.48
2019-03-11T00:03:37.997Z,40.44
2019-03-11T00:04:37.979Z,41.09
2019-03-11T00:05:37.973Z,41.41
2019-03-11T00:06:37.956Z,40.93
2019-03-11T00:07:37.961Z,42.38
2019-03-11T00:08:37.950Z,41.89
2019-03-11T00:09:37.935Z,43.02
2019-03-11T00:10:37.928Z,41.41
2019-03-11T00:11:37.915Z,42.06
2019-03-11T00:12:37.913Z,40.61
2019-03-11T00:13:37.924Z,41.09
2019-03-11T00:14:37.904Z,40.61
2019-03-11T00:15:37.903Z,40.12
2019-03-11T00:16:37.880Z,40.12
2019-03-11T00:17:37.885Z,40.12
2019-03-11T00:18:37.903Z,39.64
2019-03-11T00:19:37.884Z,39.64
2019-03-11T00:20:37.862Z,40.93
2019-03-11T00:21:37.849Z,41.73
2019-03-11T00:22:38.499Z,42.70
2019-03-11T00:23:37.841Z,42.54
2019-03-11T00:24:37.850Z,43.02
2019-03-11T00:25:37.849Z,41.73
2019-03-11T00:26:37.850Z,41.09
2019-03-11T00:27:37.831Z,40.77
2019-03-11T00:28:37.823Z,40.93
2019-03-11T00:29:37.834Z,40.61
2019-03-11T00:30:37.803Z,41.41
2019-03-11T00:31:37.806Z,40.12
2019-03-11T00:32:37.820Z,40.93
2019-03-11T00:33:37.791Z,40.12
2019-03-11T00:34:37.812Z,40.93
2019-03-11T00:35:37.770Z,41.09
2019-03-11T00:36:37.777Z,40.44
2019-03-11T00:37:38.755Z,40.61
2019-03-11T00:38:37.747Z,42.22
2019-03-11T00:39:37.753Z,41.89
2019-03-11T00:40:37.740Z,41.57
2019-03-11T00:41:37.741Z,42.22
2019-03-11T00:42:38.515Z,40.44
2019-03-11T00:43:37.711Z,41.09
2019-03-11T00:44:37.711Z,41.25
2019-03-11T00:45:37.711Z,42.06
2019-03-11T00:46:37.710Z,41.73
2019-03-11T00:47:37.690Z,41.09
2019-03-11T00:48:37.693Z,41.25
2019-03-11T00:49:37.695Z,42.38
2019-03-11T00:50:37.681Z,41.09
2019-03-11T00:51:37.685Z,42.06
2019-03-11T00:52:37.821Z,41.41
2019-03-11T00:53:37.698Z,41.73
2019-03-11T00:54:37.703Z,40.44
2019-03-11T00:55:37.662Z,41.57
2019-03-11T00:56:37.656Z,40.61
2019-03-11T00:57:37.662Z,41.57
2019-03-11T00:58:37.644Z,42.06
2019-03-11T00:59:37.656Z,41.89
2019-03-11T01:00:37.656Z,43.02
2019-03-11T01:01:37.605Z,42.38
2019-03-11T01:02:37.625Z,42.22
2019-03-11T01:03:37.613Z,41.25
2019-03-11T01:04:37.610Z,43.51
2019-03-11T01:05:37.593Z,40.93
2019-03-11T01:06:37.582Z,40.93
2019-03-11T01:07:37.598Z,40.61
2019-03-11T01:08:37.576Z,40.28
2019-03-11T01:09:37.585Z,40.77
2019-03-11T01:10:37.575Z,41.41
2019-03-11T01:11:37.539Z,40.61
2019-03-11T01:12:37.552Z,41.41
2019-03-11T01:13:37.538Z,42.06
2019-03-11T01:14:37.546Z,41.41
2019-03-11T01:15:37.574Z,41.25
2019-03-11T01:16:37.512Z,40.93
2019-03-11T01:17:37.523Z,41.09
2019-03-11T01:18:37.506Z,41.41
2019-03-11T01:19:37.679Z,40.28
2019-03-11T01:20:37.501Z,41.09
2019-03-11T01:21:37.476Z,40.61
2019-03-11T01:22:37.476Z,41.57
2019-03-11T01:23:37.521Z,40.12
2019-03-11T01:24:37.518Z,40.77
2019-03-11T01:25:37.524Z,39.32
2019-03-11T01:26:37.474Z,39.80
2019-03-11T01:27:37.483Z,39.64
2019-03-11T01:28:37.470Z,40.44
2019-03-11T01:29:37.455Z,41.09
2019-03-11T01:30:37.453Z,41.09
2019-03-11T01:31:37.435Z,41.09
2019-03-11T01:32:37.437Z,39.48
2019-03-11T01:33:38.434Z,39.80
2019-03-11T01:34:37.446Z,40.93
2019-03-11T01:35:37.444Z,41.73
2019-03-11T01:36:37.406Z,42.38
2019-03-11T01:37:37.416Z,41.09
2019-03-11T01:38:37.400Z,39.48
2019-03-11T01:39:37.398Z,39.80
2019-03-11T01:40:37.405Z,40.44
2019-03-11T01:41:37.403Z,40.93
2019-03-11T01:42:37.362Z,41.89
2019-03-11T01:43:37.357Z,41.89
2019-03-11T01:44:37.354Z,41.25
2019-03-11T01:45:37.345Z,41.73
2019-03-11T01:46:37.349Z,41.89
2019-03-11T01:47:37.341Z,42.54
2019-03-11T01:48:37.334Z,41.89
2019-03-11T01:49:37.328Z,42.38
2019-03-11T01:50:37.358Z,41.25
2019-03-11T01:51:37.308Z,41.09
2019-03-11T01:52:37.295Z,41.89
2019-03-11T01:53:37.294Z,41.89
2019-03-11T01:54:37.298Z,41.09
2019-03-11T01:55:37.289Z,42.22
2019-03-11T01:56:37.254Z,43.67
2019-03-11T01:57:37.240Z,43.18
2019-03-11T01:58:37.249Z,42.38
2019-03-11T01:59:37.280Z,42.70
2019-03-11T02:00:37.300Z,42.22
2019-03-11T02:01:37.272Z,42.22
2019-03-11T02:02:37.255Z,42.38
2019-03-11T02:03:37.225Z,41.25
2019-03-11T02:04:37.250Z,40.44
2019-03-11T02:05:37.246Z,40.44
2019-03-11T02:06:37.235Z,40.44
2019-03-11T02:07:37.217Z,41.09
2019-03-11T02:08:37.194Z,41.09
2019-03-11T02:09:37.223Z,42.86
2019-03-11T02:10:37.218Z,42.06
2019-03-11T02:11:37.182Z,42.22
2019-03-11T02:12:37.191Z,41.41
2019-03-11T02:13:37.180Z,41.89
2019-03-11T02:14:37.156Z,42.06
2019-03-11T02:15:37.177Z,43.18
2019-03-11T02:16:37.155Z,42.70
2019-03-11T02:17:37.132Z,42.06
2019-03-11T02:18:37.133Z,43.18
2019-03-11T02:19:37.125Z,42.54
2019-03-11T02:20:37.109Z,42.54
2019-03-11T02:21:37.184Z,43.67
2019-03-11T02:22:37.091Z,42.22
2019-03-11T02:23:37.095Z,41.41
2019-03-11T02:24:37.089Z,42.38
2019-03-11T02:25:37.093Z,43.99
2019-03-11T02:26:37.105Z,42.70
2019-03-11T02:27:37.088Z,43.67
2019-03-11T02:28:37.085Z,43.83
2019-03-11T02:29:37.087Z,42.86
2019-03-11T02:30:37.131Z,44.47
2019-03-11T02:31:37.056Z,43.51
2019-03-11T02:32:37.049Z,44.31
2019-03-11T02:33:37.056Z,43.18
2019-03-11T02:34:37.059Z,43.51
2019-03-11T02:35:37.056Z,43.02
2019-03-11T02:36:37.048Z,42.86
2019-03-11T02:37:38.010Z,43.18
2019-03-11T02:38:37.020Z,44.47
2019-03-11T02:39:37.039Z,44.63
2019-03-11T02:40:37.035Z,43.99
2019-03-11T02:41:36.986Z,42.38
2019-03-11T02:42:37.001Z,44.63
2019-03-11T02:43:37.998Z,44.96
2019-03-11T02:44:36.984Z,45.12
2019-03-11T02:45:36.996Z,47.70
2019-03-11T02:46:37.211Z,46.25
2019-03-11T02:47:36.950Z,45.12
2019-03-11T02:48:36.963Z,43.18
2019-03-11T02:49:36.942Z,44.15
2019-03-11T02:50:36.927Z,44.47
2019-03-11T02:51:36.968Z,43.99
2019-03-11T02:52:36.925Z,43.99
2019-03-11T02:53:36.899Z,44.47
2019-03-11T02:54:36.916Z,42.38
2019-03-11T02:55:36.899Z,43.99
2019-03-11T02:56:36.905Z,44.96
2019-03-11T02:57:36.883Z,43.83
2019-03-11T02:58:37.884Z,46.89
2019-03-11T02:59:37.870Z,45.44
2019-03-11T03:00:36.850Z,47.05
2019-03-11T03:01:36.876Z,45.60
2019-03-11T03:02:36.854Z,46.08
2019-03-11T03:03:36.839Z,44.79
2019-03-11T03:04:36.855Z,46.41
2019-03-11T03:05:36.856Z,45.92
2019-03-11T03:06:36.880Z,46.89
2019-03-11T03:07:36.844Z,49.15
2019-03-11T03:08:36.839Z,47.37
2019-03-11T03:09:36.864Z,46.57
2019-03-11T03:10:36.884Z,46.73
2019-03-11T03:11:36.863Z,45.76
2019-03-11T03:12:36.876Z,44.96
2019-03-11T03:13:36.860Z,45.76
2019-03-11T03:14:36.832Z,47.37
2019-03-11T03:15:36.847Z,46.41
2019-03-11T03:16:36.871Z,48.50
2019-03-11T03:17:36.823Z,45.28
2019-03-11T03:18:36.821Z,46.89
2019-03-11T03:19:36.827Z,47.21
2019-03-11T03:20:36.848Z,48.98
2019-03-11T03:21:36.833Z,47.37
2019-03-11T03:22:36.833Z,47.05
2019-03-11T03:23:36.805Z,47.86
2019-03-11T03:24:36.808Z,47.37
2019-03-11T03:25:36.792Z,49.15
2019-03-11T03:26:36.826Z,47.53
2019-03-11T03:27:36.838Z,48.82
2019-03-11T03:28:36.871Z,49.31
2019-03-11T03:29:36.779Z,50.11
2019-03-11T03:30:36.861Z,50.76
2019-03-11T03:31:36.783Z,48.98
2019-03-11T03:32:36.760Z,49.63
2019-03-11T03:33:37.510Z,50.76
2019-03-11T03:34:36.757Z,50.27
2019-03-11T03:35:36.733Z,48.50
2019-03-11T03:36:36.743Z,50.11
2019-03-11T03:37:36.742Z,49.79
2019-03-11T03:38:36.755Z,48.34
2019-03-11T03:39:36.713Z,48.02
2019-03-11T03:40:36.717Z,47.70
2019-03-11T03:41:36.692Z,47.37
2019-03-11T03:42:36.777Z,48.18
2019-03-11T03:43:36.691Z,46.89
2019-03-11T03:44:36.662Z,46.73
2019-03-11T03:45:36.698Z,48.34
2019-03-11T03:46:36.645Z,47.05
2019-03-11T03:47:36.659Z,46.89
2019-03-11T03:48:36.771Z,45.60
2019-03-11T03:49:36.647Z,45.60
2019-03-11T03:50:36.626Z,45.44
2019-03-11T03:51:36.633Z,47.05
2019-03-11T03:52:36.678Z,45.92
2019-03-11T03:53:36.663Z,46.57
2019-03-11T03:54:37.534Z,48.18
2019-03-11T03:55:36.594Z,47.37
2019-03-11T03:56:36.589Z,45.44
2019-03-11T03:57:36.607Z,46.25
2019-03-11T03:58:36.568Z,45.28
2019-03-11T03:59:36.564Z,45.92
2019-03-11T04:00:36.574Z,45.92
2019-03-11T04:01:36.554Z,45.12
2019-03-11T04:02:36.707Z,45.44
2019-03-11T04:03:36.564Z,46.41
2019-03-11T04:04:36.562Z,45.92
2019-03-11T04:05:36.517Z,44.96
2019-03-11T04:06:36.543Z,45.92
2019-03-11T04:07:36.532Z,45.12
2019-03-11T04:08:36.520Z,44.47
2019-03-11T04:09:36.517Z,45.76
2019-03-11T04:10:36.553Z,44.96
2019-03-11T04:11:36.495Z,45.28
2019-03-11T04:12:36.584Z,46.08
2019-03-11T04:13:36.484Z,45.92
2019-03-11T04:14:36.468Z,45.12
2019-03-11T04:15:36.478Z,45.44
2019-03-11T04:16:36.465Z,46.73
2019-03-11T04:17:36.494Z,46.57
2019-03-11T04:18:36.439Z,46.73
2019-03-11T04:19:36.428Z,48.50
2019-03-11T04:20:36.445Z,47.05
2019-03-11T04:21:36.535Z,46.57
2019-03-11T04:22:36.428Z,45.76
2019-03-11T04:23:36.448Z,46.73
2019-03-11T04:24:36.432Z,46.57
2019-03-11T04:26:08.850Z,45.60
2019-03-11T04:26:36.384Z,45.76
2019-03-11T04:27:36.365Z,44.96
2019-03-11T04:28:36.364Z,45.76
2019-03-11T04:29:36.348Z,45.60
2019-03-11T04:30:36.346Z,43.99
2019-03-11T04:31:36.364Z,44.47
2019-03-11T04:32:36.336Z,45.12
2019-03-11T04:33:36.331Z,45.44
2019-03-11T04:34:36.435Z,45.76
2019-03-11T04:35:36.320Z,45.76
2019-03-11T04:36:36.310Z,45.60
2019-03-11T04:37:36.300Z,47.21
2019-03-11T04:38:36.296Z,46.57
2019-03-11T04:39:36.284Z,45.28
2019-03-11T04:40:36.275Z,45.28
2019-03-11T04:41:36.268Z,45.28
2019-03-11T04:42:36.264Z,45.60
2019-03-11T04:43:36.266Z,44.96
2019-03-11T04:44:36.245Z,44.31
2019-03-11T04:45:36.236Z,44.63
2019-03-11T04:46:36.234Z,45.44
2019-03-11T04:47:36.232Z,46.73
2019-03-11T04:48:36.229Z,46.25
2019-03-11T04:49:36.212Z,46.89
2019-03-11T04:50:36.201Z,47.70
2019-03-11T04:51:36.192Z,45.12
2019-03-11T04:52:36.194Z,44.15
2019-03-11T04:53:36.199Z,43.51
2019-03-11T04:54:36.176Z,43.51
2019-03-11T04:55:36.177Z,43.18
2019-03-11T04:56:36.158Z,43.83
2019-03-11T04:57:36.155Z,43.67
2019-03-11T04:58:36.159Z,44.47
2019-03-11T04:59:36.135Z,45.44
2019-03-11T05:00:36.130Z,46.08
2019-03-11T05:01:36.130Z,46.73
2019-03-11T05:02:36.113Z,45.12
2019-03-11T05:03:36.125Z,44.96
2019-03-11T05:04:36.099Z,46.41
2019-03-11T05:05:36.115Z,46.41
2019-03-11T05:06:36.097Z,45.92
2019-03-11T05:07:36.115Z,45.92
2019-03-11T05:08:36.095Z,47.37
2019-03-11T05:09:36.083Z,48.82
2019-03-11T05:10:36.075Z,47.86
2019-03-11T05:11:36.092Z,46.73
2019-03-11T05:12:36.072Z,46.08
2019-03-11T05:13:36.064Z,46.89
2019-03-11T05:14:36.074Z,46.73
2019-03-11T05:15:36.051Z,46.41
2019-03-11T05:16:36.033Z,46.08
2019-03-11T05:17:37.041Z,46.89
2019-03-11T05:18:36.025Z,47.05
2019-03-11T05:19:36.041Z,46.89
2019-03-11T05:20:36.023Z,46.73
2019-03-11T05:21:36.020Z,46.57
2019-03-11T05:22:36.005Z,46.57
2019-03-11T05:23:36.002Z,47.05
2019-03-11T05:24:36.012Z,47.53
2019-03-11T05:25:35.994Z,47.37
2019-03-11T05:26:35.982Z,47.05
2019-03-11T05:27:35.979Z,47.05
2019-03-11T05:28:35.974Z,47.21
2019-03-11T05:29:35.975Z,47.53
2019-03-11T05:30:35.957Z,49.47
2019-03-11T05:31:35.946Z,47.37
2019-03-11T05:32:35.947Z,48.02
2019-03-11T05:33:35.941Z,47.21
2019-03-11T05:34:35.953Z,47.53
2019-03-11T05:35:35.938Z,46.73
2019-03-11T05:36:35.928Z,46.25
2019-03-11T05:37:35.925Z,47.05
2019-03-11T05:38:35.929Z,47.37
2019-03-11T05:39:35.917Z,46.89
2019-03-11T05:40:35.898Z,47.21
2019-03-11T05:41:35.895Z,46.89
2019-03-11T05:42:35.883Z,47.86
2019-03-11T05:43:35.879Z,47.37
2019-03-11T05:44:35.903Z,48.34
2019-03-11T05:45:35.863Z,48.98
2019-03-11T05:46:35.860Z,48.50
2019-03-11T05:47:35.844Z,47.21
2019-03-11T05:48:35.845Z,48.02
2019-03-11T05:49:35.872Z,49.47
2019-03-11T05:50:35.849Z,48.50
2019-03-11T05:51:35.845Z,48.50
2019-03-11T05:52:35.841Z,48.02
2019-03-11T05:53:35.834Z,47.21
2019-03-11T05:54:35.823Z,47.86
2019-03-11T05:55:35.856Z,49.63
2019-03-11T05:56:35.806Z,48.02
2019-03-11T05:57:35.796Z,47.53
2019-03-11T05:58:35.791Z,49.15
2019-03-11T05:59:35.783Z,48.02
2019-03-11T06:00:35.789Z,48.50
2019-03-11T06:01:35.792Z,47.70
2019-03-11T06:02:36.655Z,49.31
2019-03-11T06:03:36.787Z,47.53
2019-03-11T06:04:35.767Z,47.21
2019-03-11T06:05:35.770Z,49.31
2019-03-11T06:06:35.769Z,48.50
2019-03-11T06:07:35.749Z,47.53
2019-03-11T06:08:35.744Z,47.70
2019-03-11T06:09:35.742Z,48.02
2019-03-11T06:10:35.748Z,48.02
2019-03-11T06:11:35.722Z,49.31
2019-03-11T06:12:35.716Z,48.34
2019-03-11T06:13:36.401Z,48.34
2019-03-11T06:14:36.697Z,47.53
2019-03-11T06:15:35.724Z,47.53
2019-03-11T06:16:35.686Z,48.02
2019-03-11T06:17:35.784Z,47.53
2019-03-11T06:18:35.670Z,47.53
2019-03-11T06:19:35.669Z,48.02
2019-03-11T06:20:35.688Z,46.89
2019-03-11T06:21:35.671Z,46.25
2019-03-11T06:22:35.682Z,46.89
2019-03-11T06:23:35.666Z,46.41
2019-03-11T06:24:35.652Z,46.25
2019-03-11T06:25:35.662Z,45.92
2019-03-11T06:26:35.649Z,46.89
2019-03-11T06:27:35.635Z,46.57
2019-03-11T06:28:35.623Z,45.76
2019-03-11T06:29:35.642Z,46.57
2019-03-11T06:30:35.667Z,47.37
2019-03-11T06:31:35.617Z,47.05
2019-03-11T06:32:35.643Z,48.18
2019-03-11T06:33:35.607Z,47.53
2019-03-11T06:34:35.625Z,47.70
2019-03-11T06:35:35.600Z,48.50
2019-03-11T06:36:35.589Z,47.86
2019-03-11T06:37:35.599Z,47.05
2019-03-11T06:38:35.597Z,47.05
2019-03-11T06:39:35.583Z,48.02
2019-03-11T06:40:35.607Z,46.41
2019-03-11T06:41:35.567Z,48.18
2019-03-11T06:42:35.560Z,47.53
2019-03-11T06:43:35.638Z,47.21
2019-03-11T06:44:35.549Z,47.21
2019-03-11T06:45:35.573Z,46.57
2019-03-11T06:46:35.555Z,46.57
2019-03-11T06:47:35.520Z,46.41
2019-03-11T06:48:36.529Z,46.25
2019-03-11T06:49:35.528Z,47.53
2019-03-11T06:50:35.502Z,47.86
2019-03-11T06:51:35.509Z,49.63
2019-03-11T06:52:35.487Z,53.33
2019-03-11T06:53:35.483Z,53.82
2019-03-11T06:54:35.479Z,47.86
2019-03-11T06:55:35.470Z,53.01
2019-03-11T06:56:35.474Z,53.33
2019-03-11T06:57:35.471Z,53.33
2019-03-11T06:58:35.446Z,52.85
2019-03-11T06:59:35.444Z,53.33
2019-03-11T07:00:35.466Z,52.69
2019-03-11T07:01:35.454Z,53.17
2019-03-11T07:02:35.424Z,52.85
2019-03-11T07:03:35.442Z,53.01
2019-03-11T07:04:35.420Z,53.66
2019-03-11T07:05:36.426Z,54.14
2019-03-11T07:06:35.431Z,53.98
2019-03-11T07:07:35.404Z,53.82
2019-03-11T07:08:35.403Z,53.66
2019-03-11T07:09:35.388Z,52.53
2019-03-11T07:10:35.384Z,53.01
2019-03-11T07:11:35.415Z,53.17
2019-03-11T07:12:35.398Z,53.66
2019-03-11T07:13:35.372Z,53.66
2019-03-11T07:14:35.380Z,54.79
2019-03-11T07:15:35.353Z,53.01
2019-03-11T07:16:36.365Z,53.82
2019-03-11T07:17:35.344Z,53.33
2019-03-11T07:18:35.345Z,53.82
2019-03-11T07:19:35.321Z,54.30
2019-03-11T07:20:36.334Z,53.50
2019-03-11T07:21:35.341Z,54.14
2019-03-11T07:22:35.308Z,53.17
2019-03-11T07:23:35.315Z,54.30
2019-03-11T07:24:35.303Z,56.07
2019-03-11T07:25:35.287Z,55.59
2019-03-11T07:26:35.304Z,54.79
2019-03-11T07:27:35.293Z,54.95
2019-03-11T07:28:35.272Z,53.17
2019-03-11T07:29:35.255Z,54.62
2019-03-11T07:30:35.253Z,55.27
2019-03-11T07:31:35.282Z,53.98
2019-03-11T07:32:35.259Z,54.62
2019-03-11T07:33:35.237Z,54.14
2019-03-11T07:34:35.226Z,53.66
2019-03-11T07:35:35.209Z,54.14
2019-03-11T07:36:35.216Z,52.85
2019-03-11T07:37:35.201Z,54.14
2019-03-11T07:38:35.219Z,53.98
2019-03-11T07:39:35.186Z,53.66
2019-03-11T07:40:35.175Z,54.30
2019-03-11T07:41:35.176Z,52.69
2019-03-11T07:42:35.177Z,54.79
2019-03-11T07:43:35.155Z,54.30
2019-03-11T07:44:35.146Z,53.33
2019-03-11T07:45:35.144Z,53.66
2019-03-11T07:46:35.131Z,52.85
2019-03-11T07:47:35.147Z,52.85
2019-03-11T07:48:35.115Z,53.01
2019-03-11T07:49:35.126Z,53.82
2019-03-11T07:50:35.115Z,55.43
2019-03-11T07:51:35.115Z,55.59
2019-03-11T07:52:35.107Z,53.98
2019-03-11T07:53:35.088Z,54.14
2019-03-11T07:54:35.997Z,52.37
2019-03-11T07:55:36.071Z,53.66
2019-03-11T07:56:35.066Z,53.50
2019-03-11T07:57:35.071Z,53.66
2019-03-11T07:58:35.071Z,53.66
2019-03-11T07:59:35.046Z,54.30
2019-03-11T08:00:35.045Z,53.33
2019-03-11T08:01:35.043Z,53.50
2019-03-11T08:02:35.035Z,53.82
2019-03-11T08:03:35.012Z,54.30
2019-03-11T08:04:35.007Z,53.66
2019-03-11T08:05:35.005Z,51.24
2019-03-11T08:06:35.004Z,49.79
2019-03-11T08:07:34.998Z,49.79
2019-03-11T08:08:35.001Z,49.79
2019-03-11T08:09:38.250Z,48.50
2019-03-11T08:10:35.970Z,47.86
2019-03-11T08:11:34.966Z,48.02
2019-03-11T08:12:34.965Z,50.27
2019-03-11T08:13:34.943Z,49.47
2019-03-11T08:14:34.932Z,48.66
2019-03-11T08:15:34.924Z,49.31
2019-03-11T08:16:34.937Z,48.82
2019-03-11T08:17:34.919Z,48.82
2019-03-11T08:18:35.505Z,48.98
2019-03-11T08:19:34.890Z,48.34
2019-03-11T08:20:34.892Z,47.70
2019-03-11T08:21:34.884Z,48.02
2019-03-11T08:22:34.906Z,48.82
2019-03-11T08:23:35.796Z,49.47
2019-03-11T08:24:35.859Z,49.31
2019-03-11T08:25:34.882Z,46.73
2019-03-11T08:26:34.887Z,47.53
2019-03-11T08:27:34.894Z,47.53
2019-03-11T08:28:34.866Z,49.47
2019-03-11T08:29:34.874Z,48.18
2019-03-11T08:30:34.871Z,47.37
2019-03-11T08:31:34.854Z,46.89
2019-03-11T08:32:34.855Z,47.21
2019-03-11T08:33:34.848Z,49.31
2019-03-11T08:34:34.826Z,47.53
2019-03-11T08:35:34.828Z,45.92
2019-03-11T08:36:34.816Z,46.89
2019-03-11T08:37:34.834Z,46.57
2019-03-11T08:38:34.849Z,47.86
2019-03-11T08:39:34.805Z,45.76
2019-03-11T08:40:34.827Z,46.89
2019-03-11T08:41:34.822Z,46.25
2019-03-11T08:42:34.820Z,46.25
2019-03-11T08:43:34.808Z,46.89
2019-03-11T08:44:34.789Z,47.86
2019-03-11T08:45:34.798Z,46.73
2019-03-11T08:46:34.788Z,46.08
2019-03-11T08:47:34.779Z,47.37
2019-03-11T08:48:34.765Z,47.86
2019-03-11T08:49:34.750Z,48.34
2019-03-11T08:50:34.749Z,48.34
2019-03-11T08:51:34.742Z,49.15
2019-03-11T08:52:34.753Z,47.05
2019-03-11T08:53:34.737Z,46.25
2019-03-11T08:54:34.709Z,46.73
2019-03-11T08:55:34.743Z,46.08
2019-03-11T08:56:34.703Z,45.44
2019-03-11T08:57:34.692Z,44.96
2019-03-11T08:58:34.734Z,44.79
2019-03-11T08:59:34.720Z,46.41
2019-03-11T09:00:34.708Z,47.05
2019-03-11T09:01:34.693Z,46.08
2019-03-11T09:02:34.719Z,47.53
2019-03-11T09:03:34.707Z,46.25
2019-03-11T09:04:34.678Z,45.76
2019-03-11T09:05:34.677Z,47.53
2019-03-11T09:06:34.664Z,46.57
2019-03-11T09:07:34.670Z,48.82
2019-03-11T09:08:34.672Z,46.57
2019-03-11T09:09:34.640Z,45.76
2019-03-11T09:10:34.635Z,45.12
2019-03-11T09:11:34.623Z,46.25
2019-03-11T09:12:34.619Z,46.41
2019-03-11T09:13:34.620Z,46.41
2019-03-11T09:14:34.623Z,46.25
2019-03-11T09:15:34.613Z,46.08
2019-03-11T09:16:34.608Z,46.89
2019-03-11T09:17:34.810Z,46.57
2019-03-11T09:18:34.603Z,47.05
2019-03-11T09:19:34.579Z,47.86
2019-03-11T09:20:34.580Z,48.50
2019-03-11T09:21:34.571Z,48.66
2019-03-11T09:22:34.566Z,47.70
2019-03-11T09:23:34.572Z,46.57
2019-03-11T09:24:34.612Z,47.05
2019-03-11T09:25:34.536Z,48.34
2019-03-11T09:26:34.535Z,47.86
2019-03-11T09:27:34.533Z,47.37
2019-03-11T09:28:34.688Z,46.57
2019-03-11T09:29:34.515Z,46.73
2019-03-11T09:30:34.506Z,46.41
2019-03-11T09:31:34.502Z,47.05
2019-03-11T09:32:34.489Z,45.76
2019-03-11T09:33:34.493Z,45.44
2019-03-11T09:34:34.485Z,47.53
2019-03-11T09:35:34.479Z,46.73
2019-03-11T09:36:34.465Z,47.05
2019-03-11T09:37:34.464Z,47.05
2019-03-11T09:38:34.484Z,48.02
2019-03-11T09:39:34.448Z,48.50
2019-03-11T09:40:34.447Z,48.02
2019-03-11T09:41:34.435Z,49.47
2019-03-11T09:42:34.425Z,49.95
2019-03-11T09:43:34.430Z,49.31
2019-03-11T09:44:34.412Z,48.98
2019-03-11T09:45:34.418Z,48.66
2019-03-11T09:46:34.407Z,48.34
2019-03-11T09:47:34.433Z,47.86
2019-03-11T09:48:34.386Z,48.02
2019-03-11T09:49:34.406Z,48.50
2019-03-11T09:50:34.391Z,48.02
2019-03-11T09:51:34.371Z,48.98
2019-03-11T09:52:34.356Z,47.53
2019-03-11T09:53:34.355Z,47.37
2019-03-11T09:54:34.357Z,49.79
2019-03-11T09:55:34.338Z,48.66
2019-03-11T09:56:42.939Z,49.15
2019-03-11T09:57:36.322Z,48.50
2019-03-11T09:58:34.317Z,48.66
2019-03-11T09:59:34.341Z,49.15
2019-03-11T10:00:34.311Z,49.31
2019-03-11T10:01:34.313Z,49.31
2019-03-11T10:02:34.339Z,49.79
2019-03-11T10:03:34.323Z,49.31
2019-03-11T10:04:34.374Z,50.27
2019-03-11T10:05:34.308Z,48.18
2019-03-11T10:06:34.322Z,46.89
2019-03-11T10:07:34.316Z,47.86
2019-03-11T10:08:34.298Z,48.34
2019-03-11T10:09:35.301Z,48.34
2019-03-11T10:10:34.304Z,48.02
2019-03-11T10:11:34.279Z,47.37
2019-03-11T10:12:34.277Z,46.57
2019-03-11T10:13:34.277Z,48.50
2019-03-11T10:14:34.269Z,48.98
2019-03-11T10:15:34.276Z,48.02
2019-03-11T10:16:34.264Z,48.50
2019-03-11T10:17:34.242Z,50.11
2019-03-11T10:18:34.244Z,48.18
2019-03-11T10:19:34.270Z,48.34
2019-03-11T10:20:34.242Z,47.70
2019-03-11T10:21:34.233Z,48.02
2019-03-11T10:22:34.230Z,49.79
2019-03-11T10:23:34.217Z,48.02
2019-03-11T10:24:34.220Z,46.89
2019-03-11T10:25:34.217Z,45.44
2019-03-11T10:27:06.196Z,46.57
2019-03-11T10:27:34.217Z,47.05
2019-03-11T10:28:34.201Z,47.05
2019-03-11T10:29:34.204Z,46.41
2019-03-11T10:30:34.186Z,46.25
2019-03-11T10:31:34.191Z,47.53
2019-03-11T10:32:34.177Z,48.98
2019-03-11T10:33:34.167Z,47.05
2019-03-11T10:34:34.174Z,48.02
2019-03-11T10:35:34.159Z,49.31
2019-03-11T10:36:34.144Z,47.70
2019-03-11T10:37:34.141Z,47.53
2019-03-11T10:38:34.134Z,47.70
2019-03-11T10:39:34.138Z,47.70
2019-03-11T10:40:34.125Z,47.53
2019-03-11T10:41:34.107Z,48.18
2019-03-11T10:42:34.106Z,47.21
2019-03-11T10:43:34.097Z,48.66
2019-03-11T10:44:34.083Z,49.15
2019-03-11T10:45:34.087Z,48.82
2019-03-11T10:46:34.090Z,47.53
2019-03-11T10:47:34.066Z,47.37
2019-03-11T10:48:37.545Z,48.50
2019-03-11T10:49:35.057Z,49.31
2019-03-11T10:50:34.047Z,48.98
2019-03-11T10:51:34.046Z,47.86
2019-03-11T10:52:34.034Z,47.37
2019-03-11T10:53:34.020Z,48.02
2019-03-11T10:54:34.010Z,47.37
2019-03-11T10:55:34.018Z,47.37
2019-03-11T10:56:34.001Z,47.53
2019-03-11T10:57:34.004Z,48.18
2019-03-11T10:58:33.983Z,48.98
2019-03-11T10:59:33.982Z,50.43
2019-03-11T11:00:33.986Z,48.82
2019-03-11T11:01:33.959Z,48.18
2019-03-11T11:02:33.965Z,49.15
2019-03-11T11:03:33.951Z,48.66
2019-03-11T11:04:33.963Z,48.82
2019-03-11T11:05:33.974Z,47.86
2019-03-11T11:06:33.945Z,48.34
2019-03-11T11:07:33.942Z,48.02
2019-03-11T11:08:33.933Z,48.18
2019-03-11T11:09:33.927Z,47.70
2019-03-11T11:10:33.933Z,48.82
2019-03-11T11:11:36.265Z,49.63
2019-03-11T11:12:33.906Z,47.05
2019-03-11T11:13:33.898Z,46.57
2019-03-11T11:14:33.890Z,48.82
2019-03-11T11:15:33.902Z,48.02
2019-03-11T11:16:33.892Z,47.86
2019-03-11T11:17:33.882Z,47.70
2019-03-11T11:18:33.878Z,47.21
2019-03-11T11:19:33.886Z,47.21
2019-03-11T11:20:33.890Z,48.50
2019-03-11T11:21:33.870Z,53.82
2019-03-11T11:22:33.864Z,51.40
2019-03-11T11:23:33.856Z,48.34
2019-03-11T11:24:33.870Z,48.02
2019-03-11T11:25:33.849Z,48.50
2019-03-11T11:26:33.839Z,49.15
2019-03-11T11:27:33.828Z,49.79
2019-03-11T11:28:33.812Z,47.86
2019-03-11T11:29:33.813Z,47.21
2019-03-11T11:30:33.820Z,47.37
2019-03-11T11:31:33.802Z,47.86
2019-03-11T11:32:33.791Z,46.73
2019-03-11T11:33:33.788Z,49.31
2019-03-11T11:34:33.787Z,47.53
2019-03-11T11:35:33.786Z,47.05
2019-03-11T11:36:33.767Z,47.86
2019-03-11T11:37:33.755Z,47.21
2019-03-11T11:38:33.759Z,48.50
2019-03-11T11:39:33.757Z,49.79
2019-03-11T11:40:33.792Z,48.82
2019-03-11T11:41:33.756Z,47.86
2019-03-11T11:42:33.762Z,47.53
2019-03-11T11:43:33.745Z,48.82
2019-03-11T11:44:33.738Z,48.34
2019-03-11T11:45:33.743Z,47.70
2019-03-11T11:46:33.730Z,48.18
2019-03-11T11:47:33.720Z,50.43
2019-03-11T11:48:33.710Z,49.79
2019-03-11T11:49:33.712Z,48.98
2019-03-11T11:50:33.723Z,48.34
2019-03-11T11:51:33.709Z,49.79
2019-03-11T11:52:33.702Z,48.82
2019-03-11T11:53:33.695Z,48.66
2019-03-11T11:54:33.693Z,48.50
2019-03-11T11:55:33.700Z,48.02
2019-03-11T11:56:33.679Z,48.02
2019-03-11T11:57:33.665Z,49.31
2019-03-11T11:58:33.666Z,48.50
2019-03-11T11:59:33.655Z,48.18
2019-03-11T12:00:33.673Z,48.50
2019-03-11T12:01:33.641Z,47.70
2019-03-11T12:02:33.631Z,47.21
2019-03-11T12:03:33.632Z,48.82
2019-03-11T12:04:33.631Z,48.02
2019-03-11T12:05:33.630Z,50.60
2019-03-11T12:06:33.615Z,47.21
2019-03-11T12:07:33.676Z,48.82
2019-03-11T12:08:33.594Z,50.76
2019-03-11T12:09:33.577Z,49.31
2019-03-11T12:10:34.592Z,48.34
2019-03-11T12:11:33.575Z,47.86
2019-03-11T12:12:33.570Z,48.66
2019-03-11T12:13:33.561Z,49.31
2019-03-11T12:14:33.551Z,49.47
2019-03-11T12:15:33.548Z,49.31
2019-03-11T12:16:33.550Z,48.34
2019-03-11T12:17:33.533Z,48.98
2019-03-11T12:18:33.523Z,48.98
2019-03-11T12:19:33.520Z,49.47
2019-03-11T12:20:33.516Z,50.60
2019-03-11T12:21:33.567Z,51.40
2019-03-11T12:22:33.498Z,50.43
2019-03-11T12:23:33.489Z,51.40
2019-03-11T12:24:33.476Z,49.15
2019-03-11T12:25:33.473Z,50.43
2019-03-11T12:26:33.477Z,49.63
2019-03-11T12:27:33.459Z,48.66
2019-03-11T12:28:33.448Z,49.95
2019-03-11T12:29:33.450Z,50.60
2019-03-11T12:30:33.503Z,48.66
2019-03-11T12:31:33.437Z,48.02
2019-03-11T12:32:33.413Z,49.95
2019-03-11T12:33:33.408Z,47.70
2019-03-11T12:34:33.412Z,47.70
2019-03-11T12:35:33.402Z,47.53
2019-03-11T12:36:33.409Z,48.02
2019-03-11T12:37:33.408Z,46.73
2019-03-11T12:38:33.405Z,48.66
2019-03-11T12:39:33.391Z,48.34
2019-03-11T12:40:33.384Z,48.18
2019-03-11T12:41:33.391Z,48.98
2019-03-11T12:42:33.372Z,50.76
2019-03-11T12:43:33.369Z,49.79
2019-03-11T12:44:33.354Z,48.50
2019-03-11T12:45:33.349Z,48.66
2019-03-11T12:46:33.352Z,48.98
2019-03-11T12:47:33.337Z,49.15
2019-03-11T12:48:33.349Z,49.15
2019-03-11T12:49:33.354Z,48.50
2019-03-11T12:50:33.331Z,48.02
2019-03-11T12:51:33.338Z,48.98
2019-03-11T12:52:33.321Z,50.76